createdAt,value
2022-08-26T00:01:16.517Z,98366.81
2022-08-26T00:03:22.223Z,98372.75
2022-08-26T00:05:26.894Z,98371.78
2022-08-26T00:07:28.654Z,98365.28
2022-08-26T00:09:30.839Z,98370.38
2022-08-26T00:11:32.837Z,98368.28
2022-08-26T00:13:35.319Z,98355.84
2022-08-26T00:15:38.824Z,98360.97
2022-08-26T00:17:40.904Z,98360.50
2022-08-26T00:19:42.688Z,98361.19
2022-08-26T00:21:45.643Z,98356.78
2022-08-26T00:23:47.855Z,98355.84
2022-08-26T00:25:49.535Z,98356.19
2022-08-26T00:27:51.375Z,98363.28
2022-08-26T00:29:54.689Z,98359.19
2022-08-26T00:31:58.427Z,98360.72
2022-08-26T00:34:02.665Z,98363.03
2022-08-26T00:36:05.568Z,98362.91
2022-08-26T00:38:07.491Z,98359.66
2022-08-26T00:40:13.440Z,98357.56
2022-08-26T00:42:15.128Z,98362.34
2022-08-26T00:44:20.758Z,98365.81
2022-08-26T00:46:29.304Z,98362.56
2022-08-26T00:48:34.137Z,98362.88
2022-08-26T00:50:41.608Z,98363.56
2022-08-26T00:52:45.090Z,98357.53
2022-08-26T00:55:00.010Z,98362.66
2022-08-26T00:57:15.816Z,98360.91
2022-08-26T00:59:20.548Z,98360.44
2022-08-26T01:01:22.877Z,98363.09
2022-08-26T01:03:26.670Z,98359.16
2022-08-26T01:05:29.527Z,98360.66
2022-08-26T01:07:34.728Z,98362.94
2022-08-26T01:09:36.712Z,98361.66
2022-08-26T01:11:39.216Z,98353.63
2022-08-26T01:13:41.537Z,98362.69
2022-08-26T01:15:47.801Z,98365.81
2022-08-26T01:17:54.662Z,98353.41
2022-08-26T01:20:03.849Z,98358.00
2022-08-26T01:22:10.763Z,98353.16
2022-08-26T01:24:14.341Z,98361.81
2022-08-26T01:26:24.378Z,98357.75
2022-08-26T01:28:31.608Z,98363.22
2022-08-26T01:30:37.418Z,98358.78
2022-08-26T01:32:40.337Z,98366.69
2022-08-26T01:34:43.952Z,98361.78
2022-08-26T01:36:51.394Z,98368.84
2022-08-26T01:38:56.576Z,98369.53
2022-08-26T01:40:58.531Z,98364.66
2022-08-26T01:43:02.296Z,98365.00
2022-08-26T01:45:17.292Z,98362.56
2022-08-26T01:47:21.405Z,98355.72
2022-08-26T01:49:24.876Z,98367.16
2022-08-26T01:51:29.831Z,98360.00
2022-08-26T01:53:34.562Z,98357.88
2022-08-26T01:55:39.247Z,98356.59
2022-08-26T01:57:48.531Z,98360.88
2022-08-26T01:59:51.993Z,98350.06
2022-08-26T02:01:57.026Z,98355.53
2022-08-26T02:04:02.947Z,98351.09
2022-08-26T02:06:09.231Z,98347.38
2022-08-26T02:08:13.164Z,98355.25
2022-08-26T02:10:18.355Z,98353.97
2022-08-26T02:12:23.173Z,98362.31
2022-08-26T02:14:29.330Z,98354.28
2022-08-26T02:16:38.413Z,98348.56
2022-08-26T02:18:46.836Z,98342.19
2022-08-26T02:20:51.666Z,98349.25
2022-08-26T02:22:53.651Z,98350.06
2022-08-26T02:25:10.591Z,98346.00
2022-08-26T02:27:12.265Z,98353.84
2022-08-26T02:29:26.454Z,98352.22
2022-08-26T02:31:29.059Z,98347.81
2022-08-26T02:33:30.923Z,98351.75
2022-08-26T02:35:35.611Z,98348.47
2022-08-26T02:37:37.677Z,98346.06
2022-08-26T02:39:44.098Z,98353.56
2022-08-26T02:41:47.024Z,98348.84
2022-08-26T02:43:49.829Z,98344.75
2022-08-26T02:45:51.751Z,98349.50
2022-08-26T02:47:54.430Z,98352.63
2022-08-26T02:49:58.351Z,98349.03
2022-08-26T02:52:01.919Z,98350.16
2022-08-26T02:54:04.099Z,98340.22
2022-08-26T02:56:08.525Z,98342.19
2022-08-26T02:58:11.263Z,98338.13
2022-08-26T03:00:15.435Z,98335.81
2022-08-26T03:02:17.356Z,98342.50
2022-08-26T03:04:19.289Z,98339.25
2022-08-26T03:06:22.481Z,98337.63
2022-08-26T03:08:24.263Z,98338.78
2022-08-26T03:10:27.221Z,98338.31
2022-08-26T03:12:29.096Z,98338.63
2022-08-26T03:14:31.552Z,98333.41
2022-08-26T03:16:35.595Z,98348.47
2022-08-26T03:18:37.359Z,98332.94
2022-08-26T03:20:40.082Z,98336.03
2022-08-26T03:22:43.212Z,98333.63
2022-08-26T03:24:50.513Z,98327.59
2022-08-26T03:26:53.191Z,98329.53
2022-08-26T03:29:13.969Z,98323.50
2022-08-26T03:31:16.940Z,98328.91
2022-08-26T03:33:19.100Z,98326.13
2022-08-26T03:35:22.467Z,98317.34
2022-08-26T03:37:24.054Z,98327.63
2022-08-26T03:39:25.629Z,98327.63
2022-08-26T03:41:27.281Z,98330.75
2022-08-26T03:43:28.937Z,98328.28
2022-08-26T03:45:30.644Z,98327.50
2022-08-26T03:47:33.686Z,98324.72
2022-08-26T03:49:37.646Z,98322.28
2022-08-26T03:51:40.528Z,98324.22
2022-08-26T03:53:44.567Z,98327.00
2022-08-26T03:55:47.368Z,98334.56
2022-08-26T03:57:56.461Z,98329.31
2022-08-26T03:59:59.353Z,98334.06
2022-08-26T04:02:00.967Z,98326.53
2022-08-26T04:04:05.023Z,98324.41
2022-08-26T04:06:08.332Z,98333.56
2022-08-26T04:08:11.063Z,98336.72
2022-08-26T04:10:15.581Z,98335.88
2022-08-26T04:12:21.883Z,98332.63
2022-08-26T04:14:25.951Z,98342.47
2022-08-26T04:16:29.477Z,98335.72
2022-08-26T04:18:37.203Z,98336.06
2022-08-26T04:20:39.248Z,98332.47
2022-08-26T04:22:43.858Z,98335.25
2022-08-26T04:24:46.347Z,98343.59
2022-08-26T04:26:50.516Z,98344.75
2022-08-26T04:28:53.996Z,98342.66
2022-08-26T04:30:56.037Z,98332.66
2022-08-26T04:32:58.127Z,98339.41
2022-08-26T04:35:00.022Z,98341.34
2022-08-26T04:37:05.218Z,98341.66
2022-08-26T04:39:18.811Z,98337.25
2022-08-26T04:41:22.690Z,98337.91
2022-08-26T04:43:28.409Z,98343.47
2022-08-26T04:45:30.036Z,98331.88
2022-08-26T04:47:37.781Z,98341.34
2022-08-26T04:49:39.698Z,98340.53
2022-08-26T04:51:43.967Z,98337.28
2022-08-26T04:53:45.957Z,98334.84
2022-08-26T04:55:48.527Z,98342.38
2022-08-26T04:57:50.282Z,98341.53
2022-08-26T04:59:52.144Z,98336.34
2022-08-26T05:01:57.296Z,98339.94
2022-08-26T05:03:59.236Z,98340.59
2022-08-26T05:06:05.070Z,98340.25
2022-08-26T05:08:07.261Z,98340.25
2022-08-26T05:10:11.366Z,98341.06
2022-08-26T05:12:13.164Z,98342.72
2022-08-26T05:14:18.735Z,98347.09
2022-08-26T05:16:20.735Z,98345.97
2022-08-26T05:18:25.807Z,98352.81
2022-08-26T05:20:27.786Z,98346.91
2022-08-26T05:22:29.309Z,98336.63
2022-08-26T05:24:31.364Z,98352.16
2022-08-26T05:26:33.598Z,98346.25
2022-08-26T05:28:45.514Z,98352.28
2022-08-26T05:30:52.417Z,98351.97
2022-08-26T05:32:55.401Z,98347.22
2022-08-26T05:34:57.061Z,98347.72
2022-08-26T05:37:02.447Z,98347.03
2022-08-26T05:39:06.234Z,98342.78
2022-08-26T05:41:21.651Z,98351.63
2022-08-26T05:43:23.266Z,98349.31
2022-08-26T05:45:25.393Z,98354.22
2022-08-26T05:47:26.953Z,98346.34
2022-08-26T05:49:28.749Z,98356.78
2022-08-26T05:51:31.021Z,98353.66
2022-08-26T05:53:32.960Z,98366.91
2022-08-26T05:55:35.539Z,98360.66
2022-08-26T05:57:42.205Z,98353.28
2022-08-26T05:59:44.629Z,98359.00
2022-08-26T06:01:55.438Z,98350.44
2022-08-26T06:04:01.492Z,98356.13
2022-08-26T06:06:09.737Z,98350.38
2022-08-26T06:08:14.002Z,98351.81
2022-08-26T06:10:31.470Z,98357.31
2022-08-26T06:12:34.269Z,98361.66
2022-08-26T06:14:36.072Z,98364.06
2022-08-26T06:16:41.365Z,98358.41
2022-08-26T06:18:47.832Z,98362.41
2022-08-26T06:20:57.921Z,98369.53
2022-08-26T06:23:18.348Z,98372.72
2022-08-26T06:25:38.247Z,98370.78
2022-08-26T06:27:42.430Z,98371.50
2022-08-26T06:29:43.909Z,98359.16
2022-08-26T06:31:46.338Z,98370.31
2022-08-26T06:33:48.046Z,98375.44
2022-08-26T06:35:50.876Z,98375.81
2022-08-26T06:37:52.735Z,98372.59
2022-08-26T06:39:54.367Z,98369.34
2022-08-26T06:41:56.950Z,98367.25
2022-08-26T06:44:00.498Z,98372.50
2022-08-26T06:46:06.288Z,98368.06
2022-08-26T06:48:10.364Z,98372.84
2022-08-26T06:50:11.835Z,98365.59
2022-08-26T06:52:13.564Z,98372.31
2022-08-26T06:54:15.238Z,98361.16
2022-08-26T06:56:25.764Z,98356.34
2022-08-26T06:58:33.785Z,98356.66
2022-08-26T07:00:39.148Z,98359.38
2022-08-26T07:02:46.192Z,98357.34
2022-08-26T07:04:48.769Z,98352.88
2022-08-26T07:06:53.921Z,98357.97
2022-08-26T07:09:03.302Z,98354.28
2022-08-26T07:11:07.273Z,98357.03
2022-08-26T07:13:11.087Z,98352.50
2022-08-26T07:15:13.388Z,98360.34
2022-08-26T07:17:18.288Z,98350.25
2022-08-26T07:19:29.966Z,98351.34
2022-08-26T07:21:34.154Z,98350.44
2022-08-26T07:23:39.360Z,98349.88
2022-08-26T07:25:42.656Z,98354.09
2022-08-26T07:27:54.327Z,98357.13
2022-08-26T07:29:57.215Z,98347.00
2022-08-26T07:32:02.592Z,98346.06
2022-08-26T07:34:04.531Z,98348.28
2022-08-26T07:36:08.634Z,98354.94
2022-08-26T07:38:11.156Z,98345.13
2022-08-26T07:40:14.033Z,98346.13
2022-08-26T07:42:19.862Z,98345.19
2022-08-26T07:44:21.574Z,98348.66
2022-08-26T07:46:27.134Z,98350.03
2022-08-26T07:48:32.012Z,98348.25
2022-08-26T07:50:50.128Z,98348.06
2022-08-26T07:52:52.622Z,98354.28
2022-08-26T07:54:58.053Z,98349.31
2022-08-26T07:56:59.851Z,98348.28
2022-08-26T07:59:01.762Z,98351.69
2022-08-26T08:01:05.079Z,98351.13
2022-08-26T08:03:09.617Z,98357.34
2022-08-26T08:05:19.832Z,98349.91
2022-08-26T08:07:44.207Z,98350.09
2022-08-26T08:09:53.268Z,98347.47
2022-08-26T08:11:57.406Z,98343.22
2022-08-26T08:14:00.786Z,98336.59
2022-08-26T08:16:05.340Z,98340.78
2022-08-26T08:18:07.451Z,98330.47
2022-08-26T08:20:22.151Z,98331.81
2022-08-26T08:22:31.227Z,98333.16
2022-08-26T08:24:34.341Z,98334.88
2022-08-26T08:26:47.949Z,98339.81
2022-08-26T08:29:00.841Z,98335.09
2022-08-26T08:31:03.509Z,98336.03
2022-08-26T08:33:16.098Z,98333.72
2022-08-26T08:35:29.503Z,98336.25
2022-08-26T08:37:32.583Z,98329.03
2022-08-26T08:39:47.372Z,98332.34
2022-08-26T08:42:06.789Z,98334.47
2022-08-26T08:44:18.469Z,98330.09
2022-08-26T08:46:20.526Z,98335.81
2022-08-26T08:48:27.925Z,98319.78
2022-08-26T08:50:35.040Z,98321.41
2022-08-26T08:52:39.169Z,98326.25
2022-08-26T08:54:40.715Z,98324.69
2022-08-26T08:57:01.698Z,98318.63
2022-08-26T08:59:24.619Z,98322.69
2022-08-26T09:01:26.441Z,98318.69
2022-08-26T09:03:46.590Z,98315.47
2022-08-26T09:05:51.483Z,98315.03
2022-08-26T09:08:03.142Z,98309.78
2022-08-26T09:10:37.050Z,98309.41
2022-08-26T09:12:38.812Z,98299.69
2022-08-26T09:14:41.201Z,98302.88
2022-08-26T09:16:54.901Z,98300.44
2022-08-26T09:19:04.984Z,98298.38
2022-08-26T09:21:09.659Z,98301.13
2022-08-26T09:23:11.606Z,98295.03
2022-08-26T09:25:14.981Z,98302.25
2022-08-26T09:27:40.206Z,98293.66
2022-08-26T09:29:46.354Z,98285.06
2022-08-26T09:32:13.265Z,98288.19
2022-08-26T09:34:19.471Z,98286.50
2022-08-26T09:36:39.522Z,98290.00
2022-08-26T09:38:43.855Z,98276.94
2022-08-26T09:40:59.312Z,98280.88
2022-08-26T09:43:16.001Z,98280.00
2022-08-26T09:45:30.020Z,98268.91
2022-08-26T09:47:40.553Z,98263.56
2022-08-26T09:49:42.288Z,98267.13
2022-08-26T09:51:50.065Z,98265.00
2022-08-26T09:53:58.091Z,98251.56
2022-08-26T09:56:23.777Z,98262.00
2022-08-26T09:58:37.957Z,98251.38
2022-08-26T10:00:55.892Z,98244.78
2022-08-26T10:03:03.965Z,98235.72
2022-08-26T10:05:09.900Z,98229.13
2022-08-26T10:07:14.666Z,98234.22
2022-08-26T10:09:18.744Z,98225.56
2022-08-26T10:11:56.601Z,98223.00
2022-08-26T10:14:04.710Z,98215.09
2022-08-26T10:16:17.883Z,98206.06
2022-08-26T10:18:34.969Z,98205.47
2022-08-26T10:20:41.801Z,98193.13
2022-08-26T10:23:07.821Z,98193.38
2022-08-26T10:25:16.520Z,98188.28
2022-08-26T10:27:32.309Z,98183.28
2022-08-26T10:29:48.823Z,98189.66
2022-08-26T10:31:58.791Z,98181.00
2022-08-26T10:34:05.373Z,98187.75
2022-08-26T10:36:39.465Z,98190.91
2022-08-26T10:38:57.130Z,98191.56
2022-08-26T10:41:16.950Z,98186.59
2022-08-26T10:43:25.578Z,98191.34
2022-08-26T10:45:33.346Z,98189.97
2022-08-26T10:47:42.938Z,98185.34
2022-08-26T10:49:47.177Z,98178.28
2022-08-26T10:52:22.465Z,98181.41
2022-08-26T10:54:42.138Z,98170.22
2022-08-26T10:56:53.264Z,98165.56
2022-08-26T10:59:12.406Z,98164.13
2022-08-26T11:01:41.259Z,98158.19
2022-08-26T11:04:06.141Z,98162.47
2022-08-26T11:06:27.960Z,98164.72
2022-08-26T11:08:30.330Z,98154.72
2022-08-26T11:10:38.046Z,98163.91
2022-08-26T11:12:39.875Z,98162.47
2022-08-26T11:14:53.535Z,98161.94
2022-08-26T11:17:01.378Z,98152.78
2022-08-26T11:19:09.485Z,98159.06
2022-08-26T11:21:49.516Z,98162.09
2022-08-26T11:23:53.032Z,98162.63
2022-08-26T11:26:10.937Z,98159.56
2022-08-26T11:28:44.141Z,98151.63
2022-08-26T11:30:48.356Z,98150.84
2022-08-26T11:32:59.360Z,98141.69
2022-08-26T11:35:22.116Z,98134.50
2022-08-26T11:37:35.149Z,98142.84
2022-08-26T11:39:57.155Z,98131.69
2022-08-26T11:42:25.188Z,98130.31
2022-08-26T11:44:38.928Z,98130.56
2022-08-26T11:46:56.280Z,98116.53
2022-08-26T11:49:03.538Z,98126.13
2022-08-26T11:51:11.498Z,98118.63
2022-08-26T11:53:19.221Z,98103.63
2022-08-26T11:55:24.275Z,98115.28
2022-08-26T11:57:47.663Z,98120.19
2022-08-26T11:59:49.625Z,98133.00
2022-08-26T12:01:54.593Z,98136.97
2022-08-26T12:03:58.393Z,98125.09
2022-08-26T12:06:01.197Z,98119.25
2022-08-26T12:08:09.703Z,98109.84
2022-08-26T12:10:30.007Z,98122.84
2022-08-26T12:12:36.162Z,98121.09
2022-08-26T12:14:38.197Z,98127.56
2022-08-26T12:16:45.427Z,98121.81
2022-08-26T12:18:50.170Z,98124.34
2022-08-26T12:20:56.240Z,98111.81
2022-08-26T12:23:00.160Z,98107.47
2022-08-26T12:25:06.616Z,98098.59
2022-08-26T12:27:17.932Z,98103.94
2022-08-26T12:29:28.174Z,98098.19
2022-08-26T12:31:35.592Z,98098.00
2022-08-26T12:33:43.026Z,98096.56
2022-08-26T12:35:49.387Z,98088.56
2022-08-26T12:37:54.195Z,98087.41
2022-08-26T12:40:52.818Z,98083.03
2022-08-26T12:42:54.957Z,98078.16
2022-08-26T12:45:05.532Z,98085.78
2022-08-26T12:47:43.121Z,98080.91
2022-08-26T12:49:45.681Z,98076.38
2022-08-26T12:51:52.853Z,98077.19
2022-08-26T12:54:02.513Z,98065.78
2022-08-26T12:56:33.784Z,98066.59
2022-08-26T12:58:40.296Z,98068.56
2022-08-26T13:00:46.099Z,98067.31
2022-08-26T13:02:49.836Z,98069.72
2022-08-26T13:05:00.671Z,98064.03
2022-08-26T13:07:22.587Z,98054.34
2022-08-26T13:09:30.435Z,98062.44
2022-08-26T13:11:34.682Z,98055.94
2022-08-26T13:13:37.152Z,98049.06
2022-08-26T13:15:44.369Z,98051.22
2022-08-26T13:17:46.091Z,98051.28
2022-08-26T13:19:47.753Z,98049.78
2022-08-26T13:21:55.426Z,98050.31
2022-08-26T13:24:01.366Z,98047.59
2022-08-26T13:26:03.433Z,98048.91
2022-08-26T13:28:05.373Z,98046.16
2022-08-26T13:30:07.881Z,98045.41
2022-08-26T13:32:12.403Z,98053.59
2022-08-26T13:34:20.966Z,98056.53
2022-08-26T13:36:23.140Z,98053.31
2022-08-26T13:38:33.787Z,98056.25
2022-08-26T13:40:35.952Z,98052.25
2022-08-26T13:42:37.652Z,98042.09
2022-08-26T13:44:53.225Z,98038.09
2022-08-26T13:46:55.182Z,98036.88
2022-08-26T13:48:57.469Z,98032.00
2022-08-26T13:50:59.864Z,98045.75
2022-08-26T13:53:01.872Z,98049.41
2022-08-26T13:55:07.917Z,98057.59
2022-08-26T13:57:10.973Z,98055.59
2022-08-26T13:59:14.298Z,98066.69
2022-08-26T14:01:16.958Z,98049.31
2022-08-26T14:03:18.981Z,98056.31
2022-08-26T14:05:23.197Z,98049.63
2022-08-26T14:07:25.009Z,98050.19
2022-08-26T14:09:27.597Z,98050.00
2022-08-26T14:11:30.214Z,98053.84
2022-08-26T14:13:50.994Z,98057.31
2022-08-26T14:15:53.164Z,98078.97
2022-08-26T14:17:55.747Z,98073.50
2022-08-26T14:19:57.661Z,98089.06
2022-08-26T14:22:02.584Z,98094.06
2022-08-26T14:24:08.338Z,98103.59
2022-08-26T14:26:28.956Z,98103.81
2022-08-26T14:28:31.240Z,98115.34
2022-08-26T14:30:32.966Z,98106.59
2022-08-26T14:32:35.579Z,98115.69
2022-08-26T14:34:39.976Z,98126.78
2022-08-26T14:36:41.659Z,98141.53
2022-08-26T14:38:43.393Z,98152.97
2022-08-26T14:40:45.448Z,98136.94
2022-08-26T14:42:53.906Z,98139.94
2022-08-26T14:44:58.628Z,98130.81
2022-08-26T14:47:02.706Z,98141.09
2022-08-26T14:49:07.274Z,98150.13
2022-08-26T14:51:12.176Z,98158.34
2022-08-26T14:53:33.310Z,98172.63
2022-08-26T14:55:39.035Z,98191.72
2022-08-26T14:57:40.632Z,98214.81
2022-08-26T14:59:49.733Z,98205.59
2022-08-26T15:01:52.504Z,98205.25
2022-08-26T15:03:54.172Z,98212.16
2022-08-26T15:05:55.811Z,98208.53
2022-08-26T15:07:57.513Z,98214.63
2022-08-26T15:09:59.173Z,98217.88
2022-08-26T15:12:02.544Z,98206.53
2022-08-26T15:14:04.663Z,98207.75
2022-08-26T15:16:08.988Z,98206.16
2022-08-26T15:18:10.745Z,98225.09
2022-08-26T15:20:12.511Z,98228.66
2022-08-26T15:22:14.197Z,98227.00
2022-08-26T15:24:18.877Z,98211.69
2022-08-26T15:26:21.298Z,98202.38
2022-08-26T15:28:23.226Z,98176.53
2022-08-26T15:30:26.895Z,98157.59
2022-08-26T15:32:30.895Z,98159.94
2022-08-26T15:34:32.498Z,98146.22
2022-08-26T15:36:35.381Z,98137.66
2022-08-26T15:38:40.241Z,98129.16
2022-08-26T15:40:43.444Z,98116.22
2022-08-26T15:42:45.161Z,98118.56
2022-08-26T15:45:02.004Z,98114.03
2022-08-26T15:47:03.986Z,98117.19
2022-08-26T15:49:06.979Z,98113.06
2022-08-26T15:51:20.903Z,98112.22
2022-08-26T15:53:24.486Z,98108.13
2022-08-26T15:55:26.032Z,98109.63
2022-08-26T15:57:27.577Z,98103.50
2022-08-26T15:59:32.555Z,98105.44
2022-08-26T16:01:35.729Z,98103.75
2022-08-26T16:03:37.420Z,98113.31
2022-08-26T16:05:40.799Z,98104.00
2022-08-26T16:07:42.478Z,98099.91
2022-08-26T16:09:43.992Z,98103.44
2022-08-26T16:11:45.754Z,98103.75
2022-08-26T16:13:47.781Z,98105.28
2022-08-26T16:15:49.396Z,98100.78
2022-08-26T16:17:50.890Z,98103.94
2022-08-26T16:19:52.400Z,98092.63
2022-08-26T16:21:54.393Z,98098.56
2022-08-26T16:23:59.359Z,98098.50
2022-08-26T16:26:08.512Z,98100.81
2022-08-26T16:28:13.498Z,98095.94
2022-08-26T16:30:15.674Z,98093.47
2022-08-26T16:32:17.355Z,98089.75
2022-08-26T16:34:21.064Z,98095.72
2022-08-26T16:36:22.660Z,98092.44
2022-08-26T16:38:24.886Z,98089.59
2022-08-26T16:40:27.966Z,98091.09
2022-08-26T16:42:29.715Z,98105.88
2022-08-26T16:44:44.162Z,98090.59
2022-08-26T16:46:45.931Z,98105.72
2022-08-26T16:48:48.839Z,98120.06
2022-08-26T16:50:55.774Z,98115.59
2022-08-26T16:52:57.639Z,98114.31
2022-08-26T16:55:01.318Z,98122.66
2022-08-26T16:57:03.041Z,98137.34
2022-08-26T16:59:07.030Z,98142.88
2022-08-26T17:01:09.211Z,98158.84
2022-08-26T17:03:11.882Z,98158.75
2022-08-26T17:05:13.887Z,98165.50
2022-08-26T17:07:15.547Z,98169.03
2022-08-26T17:09:17.422Z,98174.56
2022-08-26T17:11:19.629Z,98170.09
2022-08-26T17:13:35.380Z,98180.44
2022-08-26T17:15:44.625Z,98195.19
2022-08-26T17:17:49.285Z,98203.50
2022-08-26T17:19:50.818Z,98216.25
2022-08-26T17:21:52.343Z,98208.63
2022-08-26T17:23:56.540Z,98200.56
2022-08-26T17:25:58.102Z,98208.94
2022-08-26T17:27:59.726Z,98200.06
2022-08-26T17:30:03.691Z,98205.63
2022-08-26T17:32:08.545Z,98194.72
2022-08-26T17:34:10.040Z,98193.09
2022-08-26T17:36:11.783Z,98187.41
2022-08-26T17:38:13.428Z,98185.25
2022-08-26T17:40:18.618Z,98174.78
2022-08-26T17:42:20.227Z,98170.31
2022-08-26T17:44:22.073Z,98177.09
2022-08-26T17:46:24.514Z,98163.91
2022-08-26T17:48:26.476Z,98161.47
2022-08-26T17:50:30.567Z,98159.06
2022-08-26T17:52:32.522Z,98164.66
2022-08-26T17:54:34.226Z,98162.94
2022-08-26T17:56:36.134Z,98166.84
2022-08-26T17:58:51.031Z,98179.25
2022-08-26T18:00:54.641Z,98180.41
2022-08-26T18:02:56.801Z,98177.97
2022-08-26T18:04:58.814Z,98179.50
2022-08-26T18:07:03.234Z,98183.50
2022-08-26T18:09:05.369Z,98188.28
2022-08-26T18:11:11.417Z,98192.25
2022-08-26T18:13:16.657Z,98188.19
2022-08-26T18:15:18.864Z,98196.16
2022-08-26T18:17:22.990Z,98202.94
2022-08-26T18:19:24.587Z,98198.53
2022-08-26T18:21:27.464Z,98202.47
2022-08-26T18:23:31.470Z,98208.84
2022-08-26T18:25:33.629Z,98204.78
2022-08-26T18:27:36.714Z,98204.31
2022-08-26T18:29:45.550Z,98215.88
2022-08-26T18:31:48.476Z,98209.41
2022-08-26T18:33:50.577Z,98219.69
2022-08-26T18:35:54.891Z,98208.03
2022-08-26T18:37:58.011Z,98209.97
2022-08-26T18:40:12.165Z,98206.69
2022-08-26T18:42:14.245Z,98201.84
2022-08-26T18:44:21.238Z,98208.97
2022-08-26T18:46:27.450Z,98214.47
2022-08-26T18:48:31.558Z,98210.44
2022-08-26T18:50:33.484Z,98217.56
2022-08-26T18:52:35.140Z,98218.28
2022-08-26T18:54:36.852Z,98218.66
2022-08-26T18:56:40.075Z,98216.59
2022-08-26T18:58:44.874Z,98218.13
2022-08-26T19:00:46.635Z,98215.72
2022-08-26T19:02:51.904Z,98222.34
2022-08-26T19:04:57.379Z,98221.91
2022-08-26T19:06:59.687Z,98218.69
2022-08-26T19:09:06.914Z,98217.44
2022-08-26T19:11:10.968Z,98214.53
2022-08-26T19:13:15.825Z,98221.31
2022-08-26T19:15:21.708Z,98217.59
2022-08-26T19:17:23.525Z,98217.97
2022-08-26T19:19:25.205Z,98219.50
2022-08-26T19:21:28.032Z,98224.66
2022-08-26T19:23:31.853Z,98218.97
2022-08-26T19:25:34.113Z,98214.91
2022-08-26T19:27:35.791Z,98216.41
2022-08-26T19:29:40.328Z,98221.19
2022-08-26T19:31:42.410Z,98224.72
2022-08-26T19:33:45.842Z,98232.63
2022-08-26T19:35:47.846Z,98237.78
2022-08-26T19:37:49.526Z,98237.31
2022-08-26T19:39:51.330Z,98228.84
2022-08-26T19:41:53.518Z,98231.19
2022-08-26T19:43:56.092Z,98239.94
2022-08-26T19:46:00.732Z,98238.69
2022-08-26T19:48:06.072Z,98237.41
2022-08-26T19:50:11.562Z,98234.97
2022-08-26T19:52:16.513Z,98238.13
2022-08-26T19:54:18.244Z,98241.63
2022-08-26T19:56:21.484Z,98238.38
2022-08-26T19:58:23.219Z,98249.56
2022-08-26T20:00:27.341Z,98241.91
2022-08-26T20:02:29.198Z,98237.03
2022-08-26T20:04:31.799Z,98241.00
2022-08-26T20:06:34.430Z,98237.38
2022-08-26T20:08:41.731Z,98243.31
2022-08-26T20:10:44.413Z,98248.44
2022-08-26T20:12:47.349Z,98248.81
2022-08-26T20:14:48.944Z,98252.78
2022-08-26T20:16:50.725Z,98257.53
2022-08-26T20:19:11.380Z,98257.09
2022-08-26T20:21:29.538Z,98270.59
2022-08-26T20:23:31.425Z,98269.34
2022-08-26T20:25:34.247Z,98272.13
2022-08-26T20:27:38.406Z,98290.03
2022-08-26T20:29:41.976Z,98304.34
2022-08-26T20:31:44.644Z,98309.13
2022-08-26T20:33:46.839Z,98314.63
2022-08-26T20:35:48.566Z,98313.44
2022-08-26T20:37:50.248Z,98301.81
2022-08-26T20:39:54.374Z,98308.09
2022-08-26T20:41:57.302Z,98304.50
2022-08-26T20:43:59.312Z,98311.59
2022-08-26T20:46:01.017Z,98313.91
2022-08-26T20:48:02.993Z,98315.88
2022-08-26T20:50:05.175Z,98305.09
2022-08-26T20:52:06.788Z,98312.63
2022-08-26T20:54:08.535Z,98308.56
2022-08-26T20:56:15.391Z,98309.75
2022-08-26T20:58:17.135Z,98309.75
2022-08-26T21:00:22.942Z,98310.09
2022-08-26T21:02:28.293Z,98316.03
2022-08-26T21:04:29.948Z,98313.25
2022-08-26T21:06:35.210Z,98315.59
2022-08-26T21:08:38.726Z,98309.53
2022-08-26T21:10:45.472Z,98310.72
2022-08-26T21:12:47.570Z,98320.22
2022-08-26T21:14:49.858Z,98319.78
2022-08-26T21:16:51.868Z,98313.06
2022-08-26T21:18:53.571Z,98309.78
2022-08-26T21:20:55.429Z,98312.56
2022-08-26T21:22:57.248Z,98310.13
2022-08-26T21:25:02.075Z,98311.28
2022-08-26T21:27:05.269Z,98311.66
2022-08-26T21:29:09.517Z,98314.00
2022-08-26T21:31:16.664Z,98311.22
2022-08-26T21:33:18.416Z,98325.16
2022-08-26T21:35:20.177Z,98329.09
2022-08-26T21:37:22.121Z,98323.88
2022-08-26T21:39:29.916Z,98337.38
2022-08-26T21:41:31.693Z,98338.97
2022-08-26T21:43:38.381Z,98332.13
2022-08-26T21:45:41.442Z,98338.91
2022-08-26T21:47:43.841Z,98329.72
2022-08-26T21:49:45.863Z,98335.63
2022-08-26T21:51:48.620Z,98333.66
2022-08-26T21:53:52.921Z,98328.44
2022-08-26T21:55:55.011Z,98323.19
2022-08-26T21:57:56.698Z,98306.00
2022-08-26T21:59:59.559Z,98309.16
2022-08-26T22:02:01.696Z,98324.25
2022-08-26T22:04:06.786Z,98313.78
2022-08-26T22:06:08.502Z,98317.75
2022-08-26T22:08:10.434Z,98326.47
2022-08-26T22:10:12.532Z,98318.44
2022-08-26T22:12:14.448Z,98318.44
2022-08-26T22:14:18.301Z,98314.38
2022-08-26T22:16:20.031Z,98318.69
2022-08-26T22:18:21.550Z,98315.09
2022-08-26T22:20:23.966Z,98313.47
2022-08-26T22:22:26.220Z,98304.63
2022-08-26T22:24:27.856Z,98306.13
2022-08-26T22:26:32.133Z,98296.97
2022-08-26T22:28:34.453Z,98297.31
2022-08-26T22:30:35.897Z,98293.25
2022-08-26T22:32:39.636Z,98292.44
2022-08-26T22:34:41.908Z,98288.34
2022-08-26T22:36:48.464Z,98280.34
2022-08-26T22:38:50.901Z,98285.47
2022-08-26T22:41:03.421Z,98285.00
2022-08-26T22:43:12.109Z,98285.69
2022-08-26T22:45:13.758Z,98278.03
2022-08-26T22:47:15.379Z,98275.25
2022-08-26T22:49:17.703Z,98277.56
2022-08-26T22:51:19.853Z,98267.94
2022-08-26T22:53:21.608Z,98273.84
2022-08-26T22:55:23.286Z,98260.25
2022-08-26T22:57:24.904Z,98269.00
2022-08-26T22:59:26.556Z,98259.69
2022-08-26T23:01:28.531Z,98260.03
2022-08-26T23:03:30.291Z,98253.97
2022-08-26T23:05:31.985Z,98262.72
2022-08-26T23:07:34.756Z,98255.50
2022-08-26T23:09:36.922Z,98257.00
2022-08-26T23:11:42.653Z,98255.72
2022-08-26T23:13:44.176Z,98255.28
2022-08-26T23:15:46.012Z,98254.44
2022-08-26T23:17:53.583Z,98248.41
2022-08-26T23:20:01.578Z,98251.56
2022-08-26T23:22:03.693Z,98251.09
2022-08-26T23:24:07.133Z,98255.03
2022-08-26T23:26:09.085Z,98247.84
2022-08-26T23:28:13.450Z,98245.41
2022-08-26T23:30:19.037Z,98240.97
2022-08-26T23:32:26.396Z,98249.69
2022-08-26T23:34:46.888Z,98250.06
2022-08-26T23:36:49.864Z,98251.56
2022-08-26T23:38:53.481Z,98244.38
2022-08-26T23:40:58.189Z,98243.91
2022-08-26T23:43:03.432Z,98240.31
2022-08-26T23:45:10.678Z,98243.44
2022-08-26T23:47:12.543Z,98246.56
2022-08-26T23:49:13.948Z,98256.09
2022-08-26T23:51:34.324Z,98247.75
2022-08-26T23:53:35.926Z,98241.69
2022-08-26T23:55:39.181Z,98247.59
2022-08-26T23:57:44.142Z,98253.19
2022-08-26T23:59:46.058Z,98264.69
